Time;durP1;ratioP1;P1;durP2;ratioP2;P2;SDS_P1;SDS_P2;PMS_P1;PMS_P2;Temp;Humidity;BMP_temperature;BMP_pressure;BME280_temperature;BME280_humidity;BME280_pressure;Samples;Min_cycle;Max_cycle;Signal;HPM_P1;HPM_P2
2023/06/06 00:01:32;;;;;;;7.50;4.90;;;;;;;12.61;65.92;101138.70;104933;1271;98006;-79
2023/06/06 00:04:18;;;;;;;7.20;4.10;;;;;;;12.51;66.09;101135.77;104803;1276;97981;-79
2023/06/06 00:07:08;;;;;;;5.50;4.80;;;;;;;12.46;66.24;101138.98;104834;1277;98442;-79
2023/06/06 00:09:54;;;;;;;6.90;4.70;;;;;;;12.44;66.81;101137.98;104926;1275;101395;-79
2023/06/06 00:12:46;;;;;;;8.10;4.40;;;;;;;12.40;66.69;101138.95;104891;1276;99255;-79
2023/06/06 00:15:32;;;;;;;7.80;4.40;;;;;;;12.33;66.53;101136.21;104928;1271;99083;-79
2023/06/06 00:18:18;;;;;;;4.90;4.40;;;;;;;12.26;66.51;101132.55;104883;1271;97927;-78
2023/06/06 00:21:04;;;;;;;4.70;4.00;;;;;;;12.20;66.73;101135.23;104762;1271;98686;-78
2023/06/06 00:23:49;;;;;;;4.60;4.00;;;;;;;12.15;66.89;101135.40;104800;1273;102441;-78
2023/06/06 00:26:35;;;;;;;6.90;4.20;;;;;;;12.11;66.89;101136.18;104728;1277;99900;-79
2023/06/06 00:29:21;;;;;;;6.50;4.30;;;;;;;12.07;66.87;101132.15;104699;1276;98079;-79
2023/06/06 00:32:07;;;;;;;4.70;4.10;;;;;;;12.06;67.36;101131.64;104750;1276;97932;-79
2023/06/06 00:34:54;;;;;;;5.60;4.60;;;;;;;12.06;67.60;101129.69;105214;1277;100195;-79
2023/06/06 00:37:40;;;;;;;6.10;4.90;;;;;;;12.04;67.83;101130.45;104808;1277;103083;-79
2023/06/06 00:40:25;;;;;;;8.20;4.70;;;;;;;12.01;67.74;101130.64;104754;1271;99139;-80
2023/06/06 00:43:10;;;;;;;7.80;5.70;;;;;;;11.96;67.63;101129.49;104878;1274;98058;-79
2023/06/06 00:45:56;;;;;;;5.30;4.70;;;;;;;11.88;67.68;101133.45;104816;1276;97998;-79
2023/06/06 00:48:42;;;;;;;7.50;5.00;;;;;;;11.82;67.93;101135.92;104697;1271;98095;-79
2023/06/06 00:51:28;;;;;;;6.10;4.90;;;;;;;11.76;67.67;101134.67;105173;1277;102679;-79
2023/06/06 00:54:15;;;;;;;6.00;4.30;;;;;;;11.66;67.17;101133.33;105170;1271;99233;-78
2023/06/06 00:57:03;;;;;;;7.10;4.50;;;;;;;11.56;67.17;101126.09;105118;1272;97998;-79
2023/06/06 00:59:49;;;;;;;6.60;5.10;;;;;;;11.49;67.24;101126.12;105085;1271;97860;-80
2023/06/06 01:02:37;;;;;;;5.30;4.80;;;;;;;11.41;67.73;101124.83;105044;1271;98513;-79
2023/06/06 01:05:22;;;;;;;8.20;5.00;;;;;;;11.40;68.23;101122.09;105035;1271;101356;-80
2023/06/06 01:08:08;;;;;;;6.60;5.10;;;;;;;11.39;68.38;101121.35;105113;1277;100386;-78
2023/06/06 01:11:06;;;;;;;7.40;5.00;;;;;;;11.37;68.32;101125.33;105108;1276;99040;-80
2023/06/06 01:14:05;;;;;;;7.20;4.60;;;;;;;11.36;68.50;101129.05;105194;1271;97980;-79
2023/06/06 01:16:52;;;;;;;7.80;5.40;;;;;;;11.33;68.93;101128.48;105167;1271;97985;-80
2023/06/06 01:19:41;;;;;;;5.80;4.70;;;;;;;11.26;68.87;101130.91;105104;1271;102852;-79
2023/06/06 01:22:28;;;;;;;6.10;5.40;;;;;;;11.19;68.89;101132.66;105184;1277;99281;-78
2023/06/06 01:25:19;;;;;;;6.40;4.90;;;;;;;11.10;68.92;101134.23;105115;1276;98417;-79
2023/06/06 01:28:04;;;;;;;6.00;4.90;;;;;;;11.05;69.17;101135.94;105134;1276;98853;-79
2023/06/06 01:30:50;;;;;;;7.50;4.90;;;;;;;11.00;69.17;101137.54;105078;1276;98541;-79
2023/06/06 01:33:49;;;;;;;6.30;5.10;;;;;;;10.92;68.86;101140.98;105220;1277;102089;-79
2023/06/06 01:36:50;;;;;;;6.70;4.90;;;;;;;10.86;69.22;101140.30;105119;1277;99184;-78
2023/06/06 01:39:40;;;;;;;8.30;4.70;;;;;;;10.84;69.44;101143.55;105186;1271;106349;-79
2023/06/06 01:42:26;;;;;;;8.80;4.20;;;;;;;10.81;69.47;101146.72;105178;1271;96599;-80
2023/06/06 01:45:14;;;;;;;6.60;5.20;;;;;;;10.78;69.41;101146.34;104929;1271;97774;-79
2023/06/06 01:48:01;;;;;;;7.20;5.30;;;;;;;10.75;69.60;101146.85;105054;1272;101353;-80
2023/06/06 01:50:47;;;;;;;5.90;5.20;;;;;;;10.74;69.87;101147.76;105044;1271;99158;-80
2023/06/06 01:53:33;;;;;;;9.00;5.10;;;;;;;10.72;69.91;101149.75;105019;1276;98475;-80
2023/06/06 01:56:21;;;;;;;7.90;5.50;;;;;;;10.70;70.09;101147.65;105148;1277;98751;-79
2023/06/06 01:59:07;;;;;;;6.30;4.90;;;;;;;10.70;70.21;101145.95;105015;1277;99681;-80
2023/06/06 02:01:52;;;;;;;6.50;4.70;;;;;;;10.69;70.00;101143.33;105063;1271;101387;-79
2023/06/06 02:04:38;;;;;;;6.70;5.30;;;;;;;10.68;69.97;101144.30;105063;1272;100523;-79
2023/06/06 02:07:25;;;;;;;11.30;6.20;;;;;;;10.67;69.99;101144.00;105059;1276;99165;-79
2023/06/06 02:10:11;;;;;;;9.10;5.90;;;;;;;10.70;69.92;101145.14;105048;1277;98001;-79
2023/06/06 02:12:57;;;;;;;9.30;5.40;;;;;;;10.74;69.87;101148.94;104872;1271;98103;-78
2023/06/06 02:15:42;;;;;;;10.50;6.30;;;;;;;10.78;70.09;101143.65;104727;1276;101387;-78
2023/06/06 02:18:28;;;;;;;11.20;6.80;;;;;;;10.78;70.11;101144.21;104722;1291;99182;-78
2023/06/06 02:21:13;;;;;;;11.70;5.90;;;;;;;10.77;70.05;101147.18;104701;1271;97903;-79
2023/06/06 02:23:59;;;;;;;13.40;6.10;;;;;;;10.79;70.17;101148.05;104706;1277;99365;-79
2023/06/06 02:26:44;;;;;;;7.30;5.20;;;;;;;10.82;69.94;101146.11;104762;1271;97928;-79
2023/06/06 02:29:30;;;;;;;7.80;5.90;;;;;;;10.83;69.96;101145.08;104790;1276;102293;-79
2023/06/06 02:32:16;;;;;;;12.60;6.40;;;;;;;10.82;70.53;101144.23;104785;1271;99228;-78
2023/06/06 02:35:04;;;;;;;12.80;6.80;;;;;;;10.81;70.92;101141.92;104758;1276;97912;-79
2023/06/06 02:37:50;;;;;;;16.50;6.80;;;;;;;10.79;71.20;101141.13;104925;1271;98052;-78
2023/06/06 02:40:36;;;;;;;11.10;6.30;;;;;;;10.73;71.51;101143.71;104816;1277;97883;-78
2023/06/06 02:43:21;;;;;;;9.30;6.00;;;;;;;10.69;71.19;101141.33;104839;1271;101385;-80
2023/06/06 02:46:07;;;;;;;6.50;5.50;;;;;;;10.65;71.31;101140.52;104818;1271;100230;-78
2023/06/06 02:48:53;;;;;;;8.00;6.00;;;;;;;10.60;70.90;101139.31;104692;1280;98776;-79
2023/06/06 02:51:38;;;;;;;7.40;5.60;;;;;;;10.57;71.04;101144.31;104764;1284;97981;-78
2023/06/06 02:54:24;;;;;;;11.00;6.00;;;;;;;10.56;71.07;101144.62;104836;1276;97999;-79
2023/06/06 02:57:09;;;;;;;7.10;5.80;;;;;;;10.57;71.41;101144.69;104745;1276;102666;-79
2023/06/06 02:59:58;;;;;;;7.40;6.00;;;;;;;10.58;71.49;101147.16;104815;1271;99938;-81
2023/06/06 03:02:44;;;;;;;9.40;6.30;;;;;;;10.56;71.74;101147.73;105048;1276;99120;-80
2023/06/06 03:05:29;;;;;;;12.50;5.70;;;;;;;10.57;71.97;101150.25;105022;1277;97971;-79
2023/06/06 03:08:15;;;;;;;9.70;7.10;;;;;;;10.62;71.76;101153.08;105013;1273;98461;-79
2023/06/06 03:11:01;;;;;;;8.50;6.40;;;;;;;10.67;72.03;101155.16;104971;1271;102364;-80
2023/06/06 03:13:47;;;;;;;10.80;6.50;;;;;;;10.71;72.22;101157.35;104991;1273;99094;-79
2023/06/06 03:16:34;;;;;;;11.20;6.80;;;;;;;10.73;72.37;101154.13;104975;1276;98466;-80
2023/06/06 03:19:20;;;;;;;9.40;6.30;;;;;;;10.75;72.85;101151.87;104835;1271;98003;-79
2023/06/06 03:22:07;;;;;;;14.10;7.30;;;;;;;10.80;73.01;101149.84;104792;1271;98505;-79
2023/06/06 03:24:54;;;;;;;13.70;7.10;;;;;;;10.86;73.09;101149.61;104787;1276;102636;-79
2023/06/06 03:27:41;;;;;;;12.60;6.70;;;;;;;10.91;73.38;101149.39;104750;1276;100379;-78
2023/06/06 03:30:27;;;;;;;10.10;7.30;;;;;;;10.98;73.43;101144.92;104812;1277;99086;-79
2023/06/06 03:33:14;;;;;;;11.80;7.40;;;;;;;11.04;73.51;101143.42;104816;1277;97887;-78
2023/06/06 03:36:01;;;;;;;14.10;7.00;;;;;;;11.08;73.80;101139.52;104743;1271;97949;-79
2023/06/06 03:38:47;;;;;;;10.80;6.90;;;;;;;11.15;73.84;101142.48;104709;1277;101441;-78
2023/06/06 03:41:32;;;;;;;12.00;7.70;;;;;;;11.24;73.66;101144.02;104729;1276;99109;-80
2023/06/06 03:44:18;;;;;;;10.90;6.70;;;;;;;11.35;73.54;101137.42;104811;1271;98754;-78
2023/06/06 03:47:04;;;;;;;14.30;6.90;;;;;;;11.46;73.29;101142.88;104797;1271;98091;-79
2023/06/06 03:49:50;;;;;;;10.20;6.30;;;;;;;11.57;73.13;101142.07;104811;1276;98518;-79
2023/06/06 03:52:38;;;;;;;11.10;6.60;;;;;;;11.68;73.01;101144.93;104862;1271;101994;-79
2023/06/06 03:55:24;;;;;;;9.30;6.70;;;;;;;11.79;72.74;101143.73;104889;1276;100376;-79
2023/06/06 03:58:10;;;;;;;8.90;6.50;;;;;;;11.88;72.95;101148.83;104859;1277;97970;-80
2023/06/06 04:01:01;;;;;;;9.00;6.60;;;;;;;11.94;73.35;101146.09;105615;1271;97988;-81
2023/06/06 04:03:47;;;;;;;11.90;6.60;;;;;;;12.01;73.52;101146.75;105752;1277;98061;-81
2023/06/06 04:06:32;;;;;;;9.60;6.30;;;;;;;12.06;73.68;101150.09;105683;1276;101708;-81
2023/06/06 04:09:18;;;;;;;13.30;6.20;;;;;;;12.10;73.84;101145.21;105765;1271;99100;-81
2023/06/06 04:12:05;;;;;;;10.60;6.60;;;;;;;12.17;73.81;101143.46;105511;1277;97873;-81
2023/06/06 04:14:51;;;;;;;10.40;6.40;;;;;;;12.26;74.11;101142.20;105619;1271;96475;-81
2023/06/06 04:17:37;;;;;;;13.30;7.10;;;;;;;12.37;73.98;101145.23;105550;1276;98449;-80
2023/06/06 04:20:22;;;;;;;13.80;6.80;;;;;;;12.49;73.92;101141.80;105732;1272;101462;-80
2023/06/06 04:23:09;;;;;;;10.50;6.40;;;;;;;12.62;73.47;101138.34;105683;1272;100382;-80
2023/06/06 04:25:56;;;;;;;8.80;6.70;;;;;;;12.75;73.43;101138.69;105659;1276;98002;-80
2023/06/06 04:28:48;;;;;;;7.90;5.60;;;;;;;12.88;73.64;101139.63;105289;1272;97928;-80
2023/06/06 04:31:35;;;;;;;8.10;6.20;;;;;;;13.00;73.44;101137.61;105115;1278;98877;-79
2023/06/06 04:34:23;;;;;;;11.80;6.40;;;;;;;13.10;73.21;101133.42;104573;1276;101327;-79
2023/06/06 04:37:13;;;;;;;12.70;6.40;;;;;;;13.21;73.00;101131.73;104662;1276;99165;-79
2023/06/06 04:40:00;;;;;;;9.60;6.20;;;;;;;13.32;72.71;101132.67;104383;1276;98575;-77
2023/06/06 04:42:46;;;;;;;8.90;5.70;;;;;;;13.43;73.07;101133.94;104940;1274;97987;-79
2023/06/06 04:45:33;;;;;;;8.00;5.50;;;;;;;13.55;72.93;101133.85;105124;1276;99592;-79
2023/06/06 04:48:19;;;;;;;11.00;5.80;;;;;;;13.67;72.58;101132.68;105362;1277;101378;-80
2023/06/06 04:51:04;;;;;;;8.80;5.70;;;;;;;13.80;72.51;101131.41;105368;1271;99138;-79
2023/06/06 04:53:53;;;;;;;7.90;5.00;;;;;;;13.93;72.34;101126.84;105002;1277;98305;-79
2023/06/06 04:56:40;;;;;;;9.30;5.60;;;;;;;14.06;71.78;101126.90;105425;1276;97958;-79
2023/06/06 04:59:27;;;;;;;8.20;5.70;;;;;;;14.20;71.88;101127.78;105537;1275;97905;-80
2023/06/06 05:02:12;;;;;;;10.30;5.70;;;;;;;14.36;71.17;101125.92;105453;1271;110480;-79
2023/06/06 05:04:58;;;;;;;10.70;5.20;;;;;;;14.51;71.16;101129.36;105064;1277;99829;-81
2023/06/06 05:07:44;;;;;;;9.30;5.10;;;;;;;14.66;71.09;101128.41;105570;1276;98538;-80
2023/06/06 05:10:30;;;;;;;9.80;5.70;;;;;;;14.83;70.54;101132.55;105573;1272;97805;-80
2023/06/06 05:13:17;;;;;;;7.30;5.20;;;;;;;14.99;70.53;101130.70;105658;1271;98547;-80
2023/06/06 05:16:03;;;;;;;8.10;4.90;;;;;;;15.16;70.09;101127.34;105575;1272;101356;-81
2023/06/06 05:18:48;;;;;;;8.70;5.60;;;;;;;15.31;69.68;101125.30;105512;1273;100337;-81
2023/06/06 05:21:34;;;;;;;6.20;4.40;;;;;;;15.46;69.30;101125.98;105525;1271;99020;-81
2023/06/06 05:24:20;;;;;;;5.40;4.30;;;;;;;15.61;68.75;101120.40;105451;1271;97981;-81
2023/06/06 05:27:06;;;;;;;11.20;4.60;;;;;;;15.77;68.31;101121.89;105469;1271;98023;-78
2023/06/06 05:29:51;;;;;;;10.00;5.10;;;;;;;15.92;68.16;101125.46;105477;1271;102720;-79
2023/06/06 05:32:37;;;;;;;8.80;4.70;;;;;;;16.07;67.86;101123.96;104961;1276;99864;-80
2023/06/06 05:35:23;;;;;;;8.40;4.50;;;;;;;16.22;67.15;101120.13;105450;1278;98511;-80
2023/06/06 05:38:08;;;;;;;10.70;4.60;;;;;;;16.41;66.81;101119.40;105571;1276;97901;-80
2023/06/06 05:40:54;;;;;;;10.40;5.10;;;;;;;16.57;66.09;101119.10;105503;1276;97921;-81
2023/06/06 05:43:40;;;;;;;9.90;4.20;;;;;;;16.75;64.61;101117.95;105697;1271;101477;-82
2023/06/06 05:46:26;;;;;;;6.80;3.30;;;;;;;16.94;64.09;101118.73;105612;1277;100378;-81
2023/06/06 05:49:12;;;;;;;8.20;4.10;;;;;;;17.13;63.63;101117.90;105795;1276;97943;-81
2023/06/06 05:51:57;;;;;;;9.30;3.70;;;;;;;17.30;62.39;101116.45;105552;1276;98880;-80
2023/06/06 05:54:43;;;;;;;5.30;3.30;;;;;;;17.47;61.35;101117.80;105632;1273;97873;-84
2023/06/06 05:57:28;;;;;;;10.60;4.40;;;;;;;17.64;60.78;101116.95;105021;1277;102675;-85
2023/06/06 06:00:15;;;;;;;9.10;4.30;;;;;;;17.80;60.10;101116.61;105108;1273;99855;-85
2023/06/06 06:03:01;;;;;;;10.10;4.40;;;;;;;17.95;59.33;101119.88;104658;1283;99049;-82
2023/06/06 06:05:47;;;;;;;9.30;5.10;;;;;;;18.09;59.01;101116.65;105136;1276;97911;-85
2023/06/06 06:08:34;;;;;;;9.80;3.50;;;;;;;18.23;58.59;101116.48;105169;1273;98308;-83
2023/06/06 06:11:19;;;;;;;7.10;3.70;;;;;;;18.37;59.00;101118.33;104973;1279;102281;-86
2023/06/06 06:14:05;;;;;;;8.00;3.50;;;;;;;18.51;58.86;101116.10;104909;1279;99128;-87
2023/06/06 06:16:51;;;;;;;9.10;3.40;;;;;;;18.65;58.46;101114.24;105204;1279;98531;-80
2023/06/06 06:19:36;;;;;;;6.70;4.00;;;;;;;18.78;57.52;101115.00;105460;1276;97962;-81
2023/06/06 06:22:22;;;;;;;7.80;3.70;;;;;;;18.90;56.75;101117.05;105291;1273;97866;-80
2023/06/06 06:25:14;;;;;;;7.30;3.20;;;;;;;19.02;56.17;101114.56;105442;1273;102034;-80
2023/06/06 06:28:02;;;;;;;8.70;3.40;;;;;;;19.15;56.04;101114.38;104713;1276;99422;-81
2023/06/06 06:30:48;;;;;;;6.30;3.10;;;;;;;19.28;55.83;101118.04;105191;1276;98344;-80
2023/06/06 06:33:33;;;;;;;6.90;3.10;;;;;;;19.40;55.34;101120.77;105212;1276;97943;-82
2023/06/06 06:36:20;;;;;;;6.10;3.10;;;;;;;19.51;54.87;101115.98;105314;1273;98467;-80
2023/06/06 06:39:06;;;;;;;4.40;2.70;;;;;;;19.63;55.08;101116.95;105235;1276;102712;-81
2023/06/06 06:41:52;;;;;;;4.80;2.80;;;;;;;19.78;54.01;101118.52;105181;1284;100360;-80
2023/06/06 06:44:38;;;;;;;8.70;2.90;;;;;;;19.91;52.31;101116.71;105094;1273;98411;-81
2023/06/06 06:47:23;;;;;;;6.70;2.10;;;;;;;20.07;51.96;101119.47;104944;1277;97902;-80
2023/06/06 06:50:10;;;;;;;4.50;2.30;;;;;;;20.23;51.71;101119.34;105090;1273;98410;-80
2023/06/06 06:52:56;;;;;;;6.20;1.90;;;;;;;20.37;50.77;101121.95;105065;1276;102095;-80
2023/06/06 06:55:44;;;;;;;10.30;2.60;;;;;;;20.48;49.66;101117.39;105169;1272;100422;-81
2023/06/06 06:58:33;;;;;;;6.40;3.00;;;;;;;20.57;49.00;101111.56;105313;1276;97768;-81
2023/06/06 07:01:20;;;;;;;5.70;2.30;;;;;;;20.66;48.32;101110.45;105215;1274;98108;-80
2023/06/06 07:04:08;;;;;;;7.70;2.40;;;;;;;20.77;48.91;101111.33;104589;1274;99247;-80
2023/06/06 07:06:53;;;;;;;3.70;1.80;;;;;;;20.88;48.92;101111.55;104597;1274;102189;-79
2023/06/06 07:09:39;;;;;;;3.40;2.00;;;;;;;20.97;47.69;101110.15;104572;1276;99853;-80
2023/06/06 07:12:24;;;;;;;4.70;2.10;;;;;;;21.03;47.39;101110.41;104536;1274;97953;-80
2023/06/06 07:15:10;;;;;;;9.00;2.10;;;;;;;21.08;47.11;101111.39;105087;1273;99270;-80
2023/06/06 07:17:56;;;;;;;9.00;2.30;;;;;;;21.14;46.52;101106.83;104567;1284;97895;-79
2023/06/06 07:20:41;;;;;;;5.10;2.10;;;;;;;21.21;45.96;101108.05;104587;1277;101385;-80
2023/06/06 07:23:27;;;;;;;3.90;2.00;;;;;;;21.27;46.00;101107.19;104533;1274;100401;-80
2023/06/06 07:26:12;;;;;;;7.20;2.20;;;;;;;21.33;46.13;101104.40;104550;1273;99662;-80
2023/06/06 07:28:58;;;;;;;5.60;2.00;;;;;;;21.41;45.66;101103.84;104536;1277;99060;-80
2023/06/06 07:31:44;;;;;;;8.50;2.20;;;;;;;21.53;45.42;101103.01;104515;1276;98554;-80
2023/06/06 07:34:30;;;;;;;5.80;2.50;;;;;;;21.65;45.62;101104.14;104545;1276;102734;-79
2023/06/06 07:37:16;;;;;;;5.20;2.50;;;;;;;21.77;45.69;101108.59;104449;1277;99189;-79
2023/06/06 07:40:03;;;;;;;2.90;2.00;;;;;;;21.90;44.99;101103.92;104482;1277;98992;-80
2023/06/06 07:42:48;;;;;;;5.50;1.80;;;;;;;22.03;44.53;101100.41;104408;1276;98010;-78
2023/06/06 07:45:34;;;;;;;10.10;2.90;;;;;;;22.13;43.51;101096.65;104468;1277;98527;-80
2023/06/06 07:48:19;;;;;;;7.20;2.00;;;;;;;22.19;43.25;101099.19;104516;1273;101374;-80
2023/06/06 07:51:06;;;;;;;4.30;1.80;;;;;;;22.20;42.61;101100.19;104494;1278;100015;-80
2023/06/06 07:53:52;;;;;;;4.60;1.80;;;;;;;22.21;41.74;101098.13;104508;1284;97997;-79
2023/06/06 07:56:39;;;;;;;7.40;2.10;;;;;;;22.18;41.91;101095.46;104550;1273;97943;-81
2023/06/06 07:59:26;;;;;;;4.30;1.60;;;;;;;22.16;41.86;101099.37;105025;1273;98512;-80
2023/06/06 08:02:14;;;;;;;4.60;1.60;;;;;;;22.18;41.85;101100.75;105136;1276;101356;-80
2023/06/06 08:05:00;;;;;;;3.70;1.60;;;;;;;22.22;42.28;101098.73;104972;1276;99229;-80
2023/06/06 08:07:45;;;;;;;6.50;1.60;;;;;;;22.29;41.73;101093.70;105123;1273;97981;-78
2023/06/06 08:10:32;;;;;;;6.60;1.50;;;;;;;22.36;41.41;101091.29;105074;1276;99246;-79
2023/06/06 08:13:18;;;;;;;4.20;1.80;;;;;;;22.41;41.05;101091.58;105019;1273;97870;-80
2023/06/06 08:16:05;;;;;;;4.40;2.00;;;;;;;22.45;41.41;101089.06;104561;1277;110063;-80
2023/06/06 08:18:50;;;;;;;4.40;1.40;;;;;;;22.51;40.90;101086.48;104546;1273;100339;-80
2023/06/06 08:21:36;;;;;;;10.10;1.60;;;;;;;22.62;41.40;101081.22;104530;1276;98768;-81
2023/06/06 08:24:22;;;;;;;2.70;1.60;;;;;;;22.76;40.61;101084.30;104419;1276;98001;-79
2023/06/06 08:27:07;;;;;;;2.90;1.50;;;;;;;22.88;40.10;101082.27;104634;1276;99273;-81
2023/06/06 08:29:53;;;;;;;4.90;1.60;;;;;;;23.00;40.42;101082.89;105121;1272;102711;-80
2023/06/06 08:32:38;;;;;;;8.10;2.00;;;;;;;23.08;40.32;101080.91;105103;1276;100370;-82
2023/06/06 08:35:24;;;;;;;2.40;1.90;;;;;;;23.19;40.18;101078.18;105214;1276;99462;-81
2023/06/06 08:38:10;;;;;;;5.10;1.70;;;;;;;23.29;39.74;101070.35;105096;1273;98132;-81
2023/06/06 08:41:00;;;;;;;3.50;1.50;;;;;;;23.37;39.15;101069.30;105012;1276;97889;-82
2023/06/06 08:43:46;;;;;;;3.50;1.70;;;;;;;23.45;39.23;101064.40;104936;1271;101517;-81
2023/06/06 08:46:33;;;;;;;2.60;1.00;;;;;;;23.53;39.10;101064.20;105225;1276;100345;-82
2023/06/06 08:49:20;;;;;;;8.60;1.60;;;;;;;23.60;38.42;101064.53;104727;1277;99367;-80
2023/06/06 08:52:06;;;;;;;3.10;1.30;;;;;;;23.67;37.78;101058.90;104496;1276;97954;-79
2023/06/06 08:54:52;;;;;;;5.50;1.40;;;;;;;23.79;38.14;101056.52;105057;1276;97867;-81
2023/06/06 08:57:41;;;;;;;2.30;1.50;;;;;;;23.91;37.96;101056.17;104953;1273;101367;-80
2023/06/06 09:00:27;;;;;;;4.50;1.60;;;;;;;23.99;38.08;101061.86;104871;1272;99111;-80
2023/06/06 09:03:13;;;;;;;2.90;1.00;;;;;;;24.04;37.47;101060.27;105075;1274;98011;-80
2023/06/06 09:06:00;;;;;;;5.40;1.50;;;;;;;24.10;37.39;101060.22;104396;1277;97991;-80
2023/06/06 09:08:48;;;;;;;3.80;1.20;;;;;;;24.18;37.64;101061.04;104423;1278;97962;-79
2023/06/06 09:11:34;;;;;;;3.90;1.40;;;;;;;24.20;37.43;101057.64;104475;1276;102133;-81
2023/06/06 09:14:20;;;;;;;6.40;1.70;;;;;;;24.24;37.55;101058.43;105008;1272;100142;-80
2023/06/06 09:17:05;;;;;;;4.40;1.60;;;;;;;24.31;37.04;101053.44;104466;1276;98620;-80
2023/06/06 09:19:51;;;;;;;5.50;1.60;;;;;;;24.41;36.89;101049.05;104433;1274;98074;-80
2023/06/06 09:22:45;;;;;;;3.40;1.70;;;;;;;24.52;36.84;101047.50;105020;1271;97897;-81
2023/06/06 09:25:31;;;;;;;3.40;1.80;;;;;;;24.62;36.57;101044.87;104908;1271;102013;-79
2023/06/06 09:28:18;;;;;;;5.40;2.10;;;;;;;24.72;36.11;101042.77;105073;1271;99214;-82
2023/06/06 09:31:29;;;;;;;5.70;1.60;;;;;;;24.79;35.89;101040.95;105060;1277;97758;-81
2023/06/06 09:34:15;;;;;;;1.80;1.30;;;;;;;24.86;35.97;101040.69;105042;1272;98006;-81
2023/06/06 09:37:02;;;;;;;6.20;1.40;;;;;;;24.90;35.92;101038.84;105064;1271;98558;-80
2023/06/06 09:40:15;;;;;;;3.50;1.60;;;;;;;24.91;36.27;101041.70;105014;1271;101401;-80
2023/06/06 09:43:00;;;;;;;5.10;1.50;;;;;;;24.93;35.14;101042.14;104954;1272;99147;-82
2023/06/06 09:45:57;;;;;;;4.70;1.90;;;;;;;24.98;34.72;101042.05;105024;1271;98953;-81
2023/06/06 09:48:43;;;;;;;6.40;1.60;;;;;;;25.07;34.48;101038.98;105005;1272;98080;-81
2023/06/06 09:51:30;;;;;;;7.10;2.20;;;;;;;25.03;34.00;101039.48;104948;1272;98478;-81
2023/06/06 09:54:16;;;;;;;6.90;2.30;;;;;;;25.02;34.85;101040.14;105013;1273;101366;-82
2023/06/06 09:57:13;;;;;;;6.60;1.70;;;;;;;25.07;34.69;101039.27;104866;1271;99184;-81
2023/06/06 10:00:01;;;;;;;3.20;1.70;;;;;;;25.06;34.61;101029.28;105251;1275;98400;-82
2023/06/06 10:03:01;;;;;;;4.60;1.70;;;;;;;25.07;34.58;101029.72;104975;1276;97963;-81
2023/06/06 10:05:51;;;;;;;4.80;3.00;;;;;;;25.17;34.36;101028.10;105145;1271;99078;-81
2023/06/06 10:08:37;;;;;;;2.70;1.80;;;;;;;25.28;33.95;101022.34;105223;1271;102389;-81
2023/06/06 10:11:24;;;;;;;6.20;1.40;;;;;;;25.38;34.32;101023.45;105121;1272;99116;-81
2023/06/06 10:14:10;;;;;;;3.00;1.40;;;;;;;25.51;34.47;101019.90;105233;1273;97873;-80
2023/06/06 10:16:56;;;;;;;2.10;1.90;;;;;;;25.59;34.21;101016.45;105194;1276;98018;-81
2023/06/06 10:19:42;;;;;;;2.80;2.00;;;;;;;25.69;34.00;101014.85;105260;1271;98316;-80
2023/06/06 10:22:28;;;;;;;2.80;1.80;;;;;;;25.72;32.95;101002.71;105552;1272;102613;-81
2023/06/06 10:25:15;;;;;;;2.00;1.60;;;;;;;25.68;33.82;101003.48;105220;1271;100125;-82
2023/06/06 10:28:15;;;;;;;4.30;1.50;;;;;;;25.67;33.66;101004.27;105265;1276;97905;-83
2023/06/06 10:31:31;;;;;;;3.70;1.80;;;;;;;25.68;33.37;101000.70;105259;1273;97877;-79
2023/06/06 10:34:21;;;;;;;3.90;1.70;;;;;;;25.72;33.49;101002.44;104348;1277;98414;-78
2023/06/06 10:37:21;;;;;;;4.80;1.90;;;;;;;25.81;33.93;101000.39;106273;1264;102700;-86
2023/06/06 10:40:10;;;;;;;2.60;1.70;;;;;;;25.89;33.60;100995.59;105322;1271;99279;-86
2023/06/06 10:42:56;;;;;;;3.00;1.50;;;;;;;25.97;33.23;100993.09;105261;1271;97912;-83
2023/06/06 10:45:42;;;;;;;5.40;1.60;;;;;;;26.01;32.68;100989.52;104948;1272;97981;-83
2023/06/06 10:48:42;;;;;;;3.50;1.80;;;;;;;26.07;33.62;100990.79;105183;1276;98481;-83
2023/06/06 10:51:35;;;;;;;4.20;2.00;;;;;;;26.08;32.64;100988.91;105247;1271;101366;-80
2023/06/06 10:54:22;;;;;;;2.30;1.80;;;;;;;26.10;32.71;100988.15;105190;1274;100326;-80
2023/06/06 10:57:15;;;;;;;3.70;1.80;;;;;;;26.20;31.99;100987.29;105318;1274;98281;-80
2023/06/06 11:00:01;;;;;;;4.00;1.70;;;;;;;26.30;31.25;100987.20;105107;1274;98077;-80
2023/06/06 11:02:47;;;;;;;4.00;1.60;;;;;;;26.38;31.46;100986.85;104584;1274;98108;-79
2023/06/06 11:05:53;;;;;;;3.20;2.00;;;;;;;26.43;31.76;100987.20;104289;1274;102207;-78
2023/06/06 11:08:57;;;;;;;9.70;2.00;;;;;;;26.47;31.38;100987.84;104511;1274;99925;-80
2023/06/06 11:11:42;;;;;;;7.00;3.00;;;;;;;26.52;31.51;100989.14;104487;1274;98335;-80
2023/06/06 11:14:28;;;;;;;3.30;1.50;;;;;;;26.53;31.12;100987.15;104520;1270;98492;-79
2023/06/06 11:17:13;;;;;;;2.40;1.80;;;;;;;26.48;30.93;100983.05;104498;1274;98502;-79
2023/06/06 11:20:01;;;;;;;3.10;1.70;;;;;;;26.46;31.08;100981.84;104573;1274;102031;-82
2023/06/06 11:23:05;;;;;;;4.80;2.10;;;;;;;26.43;31.11;100980.39;104658;1274;100382;-80
2023/06/06 11:25:50;;;;;;;5.10;1.80;;;;;;;26.41;31.13;100978.52;104605;1271;98000;-79
2023/06/06 11:28:37;;;;;;;5.80;1.90;;;;;;;26.48;31.47;100979.42;104495;1272;97994;-80
2023/06/06 11:31:24;;;;;;;1.70;1.50;;;;;;;26.60;31.55;100974.19;104376;1272;168555;-79
2023/06/06 11:34:14;;;;;;;2.30;1.70;;;;;;;26.70;31.92;100971.23;105229;1270;102037;-81
2023/06/06 11:37:00;;;;;;;3.10;1.80;;;;;;;26.78;31.07;100966.80;105131;1273;99107;-79
2023/06/06 11:39:46;;;;;;;2.30;1.60;;;;;;;26.83;30.86;100964.68;105259;1268;98791;-80
2023/06/06 11:42:32;;;;;;;5.40;1.60;;;;;;;26.87;31.19;100964.98;105066;1274;98165;-79
2023/06/06 11:45:18;;;;;;;4.00;2.00;;;;;;;26.93;30.93;100968.07;104614;1268;97891;-78
2023/06/06 11:48:23;;;;;;;7.60;2.10;;;;;;;27.03;30.27;100964.31;105462;1271;102643;-79
2023/06/06 11:51:10;;;;;;;3.70;1.90;;;;;;;27.12;30.17;100960.08;104568;1270;99167;-79
2023/06/06 11:53:56;;;;;;;4.60;1.90;;;;;;;27.17;29.79;100958.48;105787;1273;97892;-79
2023/06/06 11:56:41;;;;;;;1.90;1.40;;;;;;;27.24;30.97;100959.74;104539;1273;98038;-78
2023/06/06 11:59:27;;;;;;;3.00;2.20;;;;;;;27.33;30.80;100955.05;104545;1273;98487;-79
2023/06/06 12:02:13;;;;;;;3.50;1.80;;;;;;;27.43;30.10;100949.10;104546;1269;101309;-78
2023/06/06 12:04:58;;;;;;;4.90;1.80;;;;;;;27.49;30.01;100943.48;104620;1268;100317;-78
2023/06/06 12:07:44;;;;;;;11.10;2.10;;;;;;;27.55;31.03;100939.23;104610;1268;98649;-77
2023/06/06 12:10:30;;;;;;;7.00;1.70;;;;;;;27.62;30.55;100938.55;104530;1280;98744;-79
2023/06/06 12:13:32;;;;;;;5.50;1.60;;;;;;;27.68;29.79;100938.94;104608;1274;98001;-79
2023/06/06 12:16:20;;;;;;;2.70;2.00;;;;;;;27.70;30.02;100938.86;104611;1274;101992;-80
2023/06/06 12:19:16;;;;;;;5.80;2.00;;;;;;;27.70;29.30;100940.08;104704;1269;99648;-78
2023/06/06 12:22:03;;;;;;;5.20;1.80;;;;;;;27.69;29.44;100937.99;104637;1274;97909;-80
2023/06/06 12:24:48;;;;;;;6.00;1.90;;;;;;;27.75;28.78;100933.73;104670;1274;97984;-79
2023/06/06 12:27:36;;;;;;;3.20;1.80;;;;;;;27.75;29.27;100933.13;104624;1274;97961;-80
2023/06/06 12:30:32;;;;;;;3.40;2.10;;;;;;;27.78;29.20;100927.86;104670;1269;102641;-80
2023/06/06 12:33:18;;;;;;;3.30;1.90;;;;;;;27.79;28.92;100926.64;104672;1271;99097;-79
2023/06/06 12:36:18;;;;;;;2.60;1.70;;;;;;;27.74;29.14;100927.30;104575;1273;98877;-80
2023/06/06 12:39:07;;;;;;;5.70;2.10;;;;;;;27.65;29.05;100924.00;104632;1274;97985;-80
2023/06/06 12:41:53;;;;;;;1.80;1.70;;;;;;;27.52;28.48;100916.77;104654;1274;99649;-80
2023/06/06 12:44:38;;;;;;;4.80;1.80;;;;;;;27.38;28.40;100910.52;104834;1273;101356;-80
2023/06/06 12:47:24;;;;;;;4.80;2.30;;;;;;;27.31;28.46;100908.19;104810;1269;99419;-79